CST,Max TemperatureF,Mean TemperatureF,Min TemperatureF,Max Dew PointF,MeanDew PointF,Min DewpointF,Max Humidity, Mean Humidity, Min Humidity, Max Sea Level PressureIn, Mean Sea Level PressureIn, Min Sea Level PressureIn, Max VisibilityMiles, Mean VisibilityMiles, Min VisibilityMiles, Max Wind SpeedMPH, Mean Wind SpeedMPH, Max Gust SpeedMPH,PrecipitationIn, CloudCover, Events, WindDirDegrees
2013-11-1,75,61,47,56,50,46,96,67,38,29.97,29.89,29.86,10,5,0,12,2,16,0.00,0,Fog,248
2013-11-2,68,56,44,53,46,40,93,64,35,30.24,30.09,29.96,10,9,2,20,7,26,0.00,0,,345
2013-11-3,65,52,39,46,41,38,100,70,39,30.30,30.23,30.16,10,5,0,13,3,18,0.00,0,Fog,54
2013-11-4,73,58,42,54,49,41,96,71,46,30.24,30.19,30.15,10,10,9,13,4,17,0.00,0,,118
2013-11-5,77,68,58,61,57,52,80,70,60,30.21,30.14,30.09,10,10,10,14,5,20,0.00,3,,125
2013-11-6,76,65,53,67,61,50,100,85,69,30.26,30.12,30.04,10,8,1,23,8,29,0.41,7,Rain,303
2013-11-7,63,52,41,50,40,35,89,64,39,30.44,30.37,30.26,10,10,4,17,9,22,T,3,Rain,15
2013-11-8,64,51,37,47,40,37,100,73,46,30.41,30.35,30.21,10,6,0,8,1,12,0.00,0,Fog,80
2013-11-9,57,52,46,50,48,44,96,84,72,30.29,30.26,30.22,10,9,5,6,1,8,0.18,4,Rain,27
2013-11-10,70,59,47,51,47,42,100,72,44,30.35,30.30,30.27,10,8,0,10,3,14,0.00,3,Fog,41
2013-11-11,74,60,45,54,47,44,100,69,38,30.31,30.26,30.18,10,4,0,7,0,10,0.00,1,Fog,40
2013-11-12,54,44,34,50,41,24,100,71,42,30.65,30.39,30.25,10,7,0,29,12,36,0.00,2,,17
2013-11-13,51,40,28,28,24,21,92,62,32,30.69,30.59,30.46,10,10,10,17,7,28,0.00,0,,35
2013-11-14,60,43,25,40,29,22,100,63,25,30.44,30.34,30.16,10,7,1,9,1,14,0.00,1,,159
2013-11-15,68,55,41,57,50,39,100,84,68,30.15,30.07,29.99,10,7,0,9,2,14,0.22,5,Fog-Rain,96
2013-11-16,75,67,58,67,63,55,100,87,73,30.02,29.96,29.88,10,6,0,17,7,24,0.00,8,,162
2013-11-17,83,73,63,72,69,62,100,85,69,29.96,29.87,29.80,10,6,0,22,8,29,0.24,6,Fog-Rain,189
2013-11-18,71,60,49,66,44,34,100,63,26,30.22,30.12,29.99,10,10,1,20,8,24,0.00,2,,30
2013-11-19,62,52,41,41,33,25,77,51,25,30.28,30.19,30.14,10,10,10,20,8,25,0.00,0,,53
2013-11-20,67,52,37,42,36,32,89,59,29,30.16,30.11,30.04,10,10,9,8,2,13,0.00,0,,77
2013-11-21,71,57,42,65,57,41,92,84,76,30.18,30.13,30.09,10,9,6,12,4,16,0.01,6,Rain,146
2013-11-22,68,59,50,65,61,47,100,94,87,30.32,30.23,30.14,10,4,1,17,7,24,1.56,8,Rain-Thunderstorm,33
2013-11-23,50,44,38,47,41,30,93,82,70,30.50,30.40,30.31,10,6,2,20,13,28,0.42,7,Rain,18
2013-11-24,42,36,30,30,24,22,76,61,46,30.60,30.50,30.42,10,10,10,22,12,29,0.00,1,,35
2013-11-25,38,36,34,36,33,26,100,82,64,30.38,30.22,30.08,10,5,2,14,8,18,1.63,8,Rain,32
2013-11-26,41,39,37,38,36,35,100,90,79,30.20,30.05,29.98,10,7,2,22,10,29,0.23,7,Rain,346
2013-11-27,44,35,26,34,25,21,92,68,43,30.45,30.36,30.21,10,10,10,17,7,22,0.00,0,,2
2013-11-28,50,37,23,30,25,21,100,68,36,30.53,30.48,30.43,10,10,10,7,0,9,0.00,0,,0
2013-11-29,57,41,24,34,28,23,100,67,33,30.58,30.52,30.43,10,6,0,7,1,9,0.00,0,Fog,39
2013-11-30,63,45,26,37,29,25,100,63,25,30.47,30.39,30.26,10,6,0,10,2,13,0.00,0,Fog,190